Huvudsida
METAR-TAF:

METAR-TAF

Flygplatser :

Maragheh, Iran

latitud: 37-20-55N, longitud: 046-07-35E, höjd: 1340 m

Aktuellt väderrapport

Denna rapport gjordes för 1 timme och 19 minuter sedan, klockan 07:00 UTC
Vind 2 kt från sydväst
Temperatur 2°C
Fuktighet 100%
Tryck 1020 hPa
Sikt: 0600 m
Brutna moln på en höjd av 500 ft
Mulet på en höjd av 9000 ft
dimma

METAR: OITM 220700Z 23002KT 0600 FG BKN005 OVC090 02/02 Q1020

Tid: 11:49 (08:19 UTC)


TAF: saknas

Aktuella väderrapporter och prognoser från 4000 flygplatser (METAR- och TAF-rapporter).

De tillgängliga stationerna syns som gula och röda prickar på kartan.

För musen över prickarna för att se namnen på stationerna.

Klicka sedan för att få väderrapporter och prognoser.

För att ändra kartan: Klicka på de gröna knapparna med ett svart kors på för att zooma in; den gröna knappen med ett streck på för att zooma ut; eller på de gröna pilarna för angränsande kartor.


METAR-TAF: